createdAt,value
2018-03-02T00:02:24.988Z,11.32
2018-03-02T00:04:53.230Z,13.20
2018-03-02T00:07:20.722Z,11.70
2018-03-02T00:09:48.952Z,9.57
2018-03-02T00:12:16.428Z,10.98
2018-03-02T00:14:43.950Z,11.77
2018-03-02T00:17:11.411Z,9.52
2018-03-02T00:19:38.872Z,12.57
2018-03-02T00:22:06.360Z,9.70
2018-03-02T00:24:33.818Z,8.10
2018-03-02T00:27:01.293Z,10.98
2018-03-02T00:29:29.559Z,11.80
2018-03-02T00:31:57.018Z,10.18
2018-03-02T00:34:25.250Z,12.88
2018-03-02T00:36:52.738Z,10.65
2018-03-02T00:39:20.239Z,13.02
2018-03-02T00:41:47.714Z,10.98
2018-03-02T00:44:15.189Z,10.90
2018-03-02T00:46:42.654Z,10.77
2018-03-02T00:49:10.131Z,11.60
2018-03-02T00:51:37.632Z,10.50
2018-03-02T00:54:05.089Z,12.23
2018-03-02T00:56:32.557Z,11.90
2018-03-02T00:59:00.168Z,10.30
2018-03-02T01:01:27.645Z,9.52
2018-03-02T01:03:55.105Z,9.40
2018-03-02T01:06:22.607Z,10.88
2018-03-02T01:08:50.133Z,11.52
2018-03-02T01:11:17.587Z,10.65
2018-03-02T01:13:45.063Z,12.40
2018-03-02T01:16:12.604Z,11.00
2018-03-02T01:18:40.103Z,12.07
2018-03-02T01:21:07.559Z,10.13
2018-03-02T01:23:35.075Z,11.07
2018-03-02T01:26:02.634Z,9.60
2018-03-02T01:28:30.104Z,12.15
2018-03-02T01:30:57.562Z,9.05
2018-03-02T01:33:25.060Z,11.05
2018-03-02T01:35:52.529Z,12.50
2018-03-02T01:38:20.774Z,11.48
2018-03-02T01:40:48.254Z,10.70
2018-03-02T01:43:16.498Z,9.68
2018-03-02T01:45:43.956Z,9.65
2018-03-02T01:48:11.451Z,12.95
2018-03-02T01:50:39.721Z,12.30
2018-03-02T01:53:07.946Z,11.80
2018-03-02T01:55:35.439Z,11.45
2018-03-02T01:58:02.904Z,10.98
2018-03-02T02:00:30.428Z,11.82
2018-03-02T02:02:57.918Z,12.18
2018-03-02T02:05:27.121Z,11.02
2018-03-02T02:07:55.354Z,11.68
2018-03-02T02:10:22.842Z,14.05
2018-03-02T02:12:51.072Z,11.48
2018-03-02T02:15:18.620Z,12.25
2018-03-02T02:17:46.106Z,11.70
2018-03-02T02:20:13.573Z,13.05
2018-03-02T02:22:41.090Z,13.82
2018-03-02T02:25:08.651Z,11.27
2018-03-02T02:27:36.150Z,12.13
2018-03-02T02:30:03.634Z,14.43
2018-03-02T02:32:31.866Z,14.55
2018-03-02T02:34:59.352Z,10.02
2018-03-02T02:37:26.820Z,10.75
2018-03-02T02:39:55.132Z,11.48
2018-03-02T02:42:22.628Z,14.00
2018-03-02T02:44:50.859Z,11.52
2018-03-02T02:47:18.350Z,13.10
2018-03-02T02:49:45.807Z,14.60
2018-03-02T02:52:13.333Z,15.55
2018-03-02T02:54:40.831Z,12.57
2018-03-02T02:57:08.323Z,9.52
2018-03-02T02:59:36.543Z,14.90
2018-03-02T03:02:04.035Z,9.75
2018-03-02T03:04:32.281Z,12.48
2018-03-02T03:09:34.479Z,14.10
2018-03-02T03:12:01.988Z,15.85
2018-03-02T03:14:29.548Z,11.77
2018-03-02T03:16:57.022Z,12.30
2018-03-02T03:19:25.247Z,13.20
2018-03-02T03:21:53.477Z,12.43
2018-03-02T03:24:21.010Z,13.80
2018-03-02T03:26:48.569Z,14.32
2018-03-02T03:29:16.114Z,13.82
2018-03-02T03:31:43.614Z,13.65
2018-03-02T03:34:11.075Z,12.75
2018-03-02T03:36:38.542Z,13.25
2018-03-02T03:39:06.027Z,14.95
2018-03-02T03:41:34.274Z,14.90
2018-03-02T03:44:01.735Z,12.27
2018-03-02T03:46:29.225Z,13.48
2018-03-02T03:48:56.681Z,15.27
2018-03-02T03:51:24.148Z,15.63
2018-03-02T03:53:51.642Z,13.93
2018-03-02T03:56:19.106Z,15.20
2018-03-02T03:58:46.586Z,13.07
2018-03-02T04:01:14.826Z,14.30
2018-03-02T04:03:42.357Z,12.37
2018-03-02T04:06:09.876Z,15.20
2018-03-02T04:08:37.372Z,13.77
2018-03-02T04:11:04.824Z,14.07
2018-03-02T04:13:32.298Z,15.02
2018-03-02T04:15:59.784Z,17.48
2018-03-02T04:18:27.300Z,17.23
2018-03-02T04:20:54.759Z,11.15
2018-03-02T04:23:22.289Z,17.20
2018-03-02T04:25:51.267Z,12.98
2018-03-02T04:28:19.505Z,13.40
2018-03-02T04:30:46.998Z,16.17
2018-03-02T04:33:15.233Z,15.70
2018-03-02T04:35:42.695Z,17.77
2018-03-02T04:38:10.183Z,14.98
2018-03-02T04:40:38.414Z,14.02
2018-03-02T04:43:05.882Z,12.07
2018-03-02T04:45:33.363Z,13.65
2018-03-02T04:48:00.835Z,16.40
2018-03-02T04:50:29.145Z,15.02
2018-03-02T04:52:56.614Z,15.40
2018-03-02T04:55:24.098Z,16.95
2018-03-02T04:57:51.615Z,15.68
2018-03-02T05:00:19.175Z,11.90
2018-03-02T05:02:46.655Z,14.25
2018-03-02T05:05:14.159Z,15.40
2018-03-02T05:07:42.392Z,15.98
2018-03-02T05:10:09.920Z,15.23
2018-03-02T05:12:37.382Z,12.88
2018-03-02T05:15:04.864Z,15.45
2018-03-02T05:17:32.358Z,19.30
2018-03-02T05:20:00.586Z,16.90
2018-03-02T05:22:28.060Z,18.42
2018-03-02T05:24:55.580Z,16.85
2018-03-02T05:27:23.067Z,18.10
2018-03-02T05:29:50.532Z,17.00
2018-03-02T05:32:18.023Z,17.55
2018-03-02T05:34:46.249Z,18.02
2018-03-02T05:37:13.781Z,14.48
2018-03-02T05:39:41.253Z,15.80
2018-03-02T05:42:08.740Z,18.85
2018-03-02T05:44:36.232Z,13.88
2018-03-02T05:47:03.812Z,18.08
2018-03-02T05:49:31.267Z,16.08
2018-03-02T05:51:58.986Z,14.00
2018-03-02T05:54:26.427Z,18.55
2018-03-02T05:56:53.914Z,15.27
2018-03-02T05:59:22.158Z,20.77
2018-03-02T06:01:49.622Z,15.07
2018-03-02T06:04:17.183Z,17.10
2018-03-02T06:06:44.749Z,19.10
2018-03-02T06:09:12.975Z,16.12
2018-03-02T06:11:40.525Z,15.48
2018-03-02T06:14:07.996Z,17.12
2018-03-02T06:16:35.450Z,20.55
2018-03-02T06:19:02.956Z,17.87
2018-03-02T06:21:31.186Z,14.43
2018-03-02T06:23:58.655Z,19.42
2018-03-02T06:26:26.183Z,18.58
2018-03-02T06:28:53.645Z,19.40
2018-03-02T06:31:21.198Z,21.27
2018-03-02T06:33:48.684Z,20.20
2018-03-02T06:36:16.216Z,17.45
2018-03-02T06:38:43.697Z,18.02
2018-03-02T06:41:11.228Z,21.00
2018-03-02T06:43:38.702Z,21.05
2018-03-02T06:46:06.246Z,15.25
2018-03-02T06:48:33.710Z,20.27
2018-03-02T06:51:01.260Z,16.65
2018-03-02T06:53:28.730Z,18.42
2018-03-02T06:55:56.272Z,20.55
2018-03-02T06:58:23.783Z,19.30
2018-03-02T07:00:51.370Z,18.48
2018-03-02T07:03:19.605Z,17.92
2018-03-02T07:05:47.060Z,19.40
2018-03-02T07:08:14.548Z,20.20
2018-03-02T07:10:42.789Z,17.25
2018-03-02T07:13:10.265Z,19.37
2018-03-02T07:15:38.515Z,17.15
2018-03-02T07:18:06.003Z,19.27
2018-03-02T07:20:34.246Z,18.27
2018-03-02T07:23:01.713Z,16.87
2018-03-02T07:25:29.204Z,23.27
2018-03-02T07:27:57.430Z,21.52
2018-03-02T07:30:24.898Z,18.77
2018-03-02T07:32:52.383Z,16.25
2018-03-02T07:35:23.442Z,18.77
2018-03-02T07:37:50.910Z,20.17
2018-03-02T07:40:21.089Z,23.02
2018-03-02T07:42:49.286Z,18.30
2018-03-02T07:45:16.965Z,17.60
2018-03-02T07:47:44.448Z,17.90
2018-03-02T07:50:11.914Z,15.60
2018-03-02T07:52:39.439Z,18.92
2018-03-02T07:55:06.915Z,24.35
2018-03-02T07:57:34.383Z,23.35
2018-03-02T08:00:01.850Z,20.37
2018-03-02T08:02:30.114Z,19.70
2018-03-02T08:04:57.583Z,20.70
2018-03-02T08:07:25.052Z,21.30
2018-03-02T08:09:52.554Z,14.68
2018-03-02T08:12:20.036Z,18.80
2018-03-02T08:14:47.519Z,16.95
2018-03-02T08:17:15.027Z,13.75
2018-03-02T08:19:42.487Z,22.05
2018-03-02T08:22:09.958Z,15.95
2018-03-02T08:24:37.447Z,19.42
2018-03-02T08:27:04.918Z,18.80
2018-03-02T08:29:33.142Z,21.98
2018-03-02T08:32:00.626Z,18.85
2018-03-02T08:34:29.608Z,17.70
2018-03-02T08:36:57.069Z,20.98
2018-03-02T08:39:24.574Z,19.90
2018-03-02T08:41:52.045Z,16.50
2018-03-02T08:44:19.516Z,20.10
2018-03-02T08:46:47.016Z,22.98
2018-03-02T08:49:14.486Z,23.02
2018-03-02T08:51:42.718Z,21.50
2018-03-02T08:54:10.224Z,18.65
2018-03-02T08:56:38.520Z,17.50
2018-03-02T09:01:39.927Z,18.50
2018-03-02T09:04:07.594Z,20.55
2018-03-02T09:06:35.087Z,23.05
2018-03-02T09:09:02.603Z,19.77
2018-03-02T09:11:30.073Z,19.75
2018-03-02T09:13:57.563Z,18.65
2018-03-02T09:16:25.086Z,22.95
2018-03-02T09:18:52.654Z,23.52
2018-03-02T09:21:20.967Z,20.33
2018-03-02T09:23:48.553Z,24.75
2018-03-02T09:26:16.001Z,20.27
2018-03-02T09:28:43.487Z,22.10
2018-03-02T09:31:10.995Z,22.92
2018-03-02T09:33:38.462Z,27.08
2018-03-02T09:36:05.937Z,21.62
2018-03-02T09:38:33.415Z,19.55
2018-03-02T09:41:00.900Z,21.85
2018-03-02T09:43:29.119Z,20.77
2018-03-02T09:45:56.619Z,19.00
2018-03-02T09:48:24.849Z,22.05
2018-03-02T09:50:52.312Z,23.33
2018-03-02T09:53:19.888Z,24.48
2018-03-02T09:55:47.350Z,25.88
2018-03-02T09:58:14.857Z,24.55
2018-03-02T10:00:42.339Z,21.52
2018-03-02T10:03:09.806Z,20.40
2018-03-02T10:05:37.327Z,21.90
2018-03-02T10:08:04.803Z,19.37
2018-03-02T10:10:32.288Z,18.67
2018-03-02T10:12:59.750Z,26.52
2018-03-02T10:15:27.252Z,24.23
2018-03-02T10:17:54.712Z,25.95
2018-03-02T10:20:22.191Z,26.55
2018-03-02T10:22:49.686Z,19.73
2018-03-02T10:25:17.148Z,24.80
2018-03-02T10:27:45.407Z,25.85
2018-03-02T10:30:12.898Z,22.00
2018-03-02T10:32:43.763Z,21.48
2018-03-02T10:35:11.255Z,23.73
2018-03-02T10:37:38.723Z,24.00
2018-03-02T10:40:07.007Z,24.95
2018-03-02T10:42:34.503Z,27.05
2018-03-02T10:45:01.962Z,27.25
2018-03-02T10:47:29.431Z,21.92
2018-03-02T10:49:57.571Z,25.35
2018-03-02T10:52:25.041Z,22.87
2018-03-02T10:54:52.505Z,28.17
2018-03-02T10:57:19.993Z,26.77
2018-03-02T10:59:47.457Z,26.80
2018-03-02T11:02:20.996Z,24.30
2018-03-02T11:04:49.911Z,25.52
2018-03-02T11:07:17.390Z,24.83
2018-03-02T11:09:44.867Z,24.27
2018-03-02T11:12:12.334Z,25.60
2018-03-02T11:14:40.572Z,21.35
2018-03-02T11:17:08.063Z,25.33
2018-03-02T11:19:36.326Z,25.15
2018-03-02T11:22:03.799Z,27.13
2018-03-02T11:24:32.043Z,20.02
2018-03-02T11:26:59.513Z,21.85
2018-03-02T11:29:26.995Z,24.52
2018-03-02T11:31:54.507Z,26.00
2018-03-02T11:34:21.966Z,27.85
2018-03-02T11:36:49.460Z,21.58
2018-03-02T11:39:17.686Z,25.67
2018-03-02T11:41:45.161Z,26.40
2018-03-02T11:44:12.643Z,25.85
2018-03-02T11:46:40.873Z,25.30
2018-03-02T11:49:08.408Z,25.20
2018-03-02T11:51:35.903Z,22.23
2018-03-02T11:54:03.368Z,26.58
2018-03-02T11:56:30.838Z,25.60
2018-03-02T11:58:59.140Z,24.15
2018-03-02T12:01:26.570Z,27.17
2018-03-02T12:03:54.031Z,27.40
2018-03-02T12:06:22.282Z,28.55
2018-03-02T12:08:49.758Z,28.87
2018-03-02T12:11:17.995Z,25.08
2018-03-02T12:13:45.469Z,23.58
2018-03-02T12:16:12.938Z,27.40
2018-03-02T12:18:40.442Z,25.98
2018-03-02T12:21:07.932Z,26.58
2018-03-02T12:23:35.403Z,26.92
2018-03-02T12:26:02.908Z,25.48
2018-03-02T12:28:30.424Z,25.67
2018-03-02T12:30:58.056Z,25.55
2018-03-02T12:33:25.504Z,24.80
2018-03-02T12:35:52.997Z,22.35
2018-03-02T12:38:20.484Z,26.55
2018-03-02T12:40:48.061Z,25.55
2018-03-02T12:43:15.584Z,21.98
2018-03-02T12:45:43.077Z,25.73
2018-03-02T12:48:10.555Z,28.15
2018-03-02T12:50:38.036Z,26.75
2018-03-02T12:53:05.502Z,27.35
2018-03-02T12:55:33.730Z,26.02
2018-03-02T12:58:01.231Z,26.12
2018-03-02T13:00:29.489Z,24.25
2018-03-02T13:02:56.966Z,24.42
2018-03-02T13:05:24.423Z,25.33
2018-03-02T13:07:52.664Z,27.37
2018-03-02T13:10:20.147Z,22.50
2018-03-02T13:12:47.621Z,24.50
2018-03-02T13:15:15.874Z,26.30
2018-03-02T13:17:43.346Z,26.65
2018-03-02T13:20:11.625Z,24.55
2018-03-02T13:22:42.726Z,25.00
2018-03-02T13:25:10.193Z,25.83
2018-03-02T13:27:49.600Z,26.23
2018-03-02T13:30:17.078Z,26.73
2018-03-02T13:32:56.630Z,25.15
2018-03-02T13:35:24.098Z,27.48
2018-03-02T13:37:51.566Z,24.20
2018-03-02T13:40:31.731Z,25.33
2018-03-02T13:42:59.953Z,24.65
2018-03-02T13:45:27.460Z,28.92
2018-03-02T13:51:06.435Z,23.02
2018-03-02T13:53:33.933Z,26.08
2018-03-02T13:56:01.406Z,27.30
2018-03-02T13:58:28.861Z,24.95
2018-03-02T14:00:59.277Z,25.73
2018-03-02T14:03:38.501Z,25.30
2018-03-02T14:06:05.997Z,26.23
2018-03-02T14:08:34.222Z,26.50
2018-03-02T14:11:01.703Z,26.05
2018-03-02T14:13:29.176Z,26.37
2018-03-02T14:15:57.413Z,26.95
2018-03-02T14:18:26.638Z,28.33
2018-03-02T14:20:54.870Z,23.52
2018-03-02T14:23:22.416Z,25.60
2018-03-02T14:25:49.921Z,25.15
2018-03-02T14:28:18.527Z,25.55
2018-03-02T14:30:46.790Z,23.83
2018-03-02T14:33:15.023Z,21.45
2018-03-02T14:35:42.511Z,21.10
2018-03-02T14:38:09.965Z,26.05
2018-03-02T14:40:37.481Z,27.30
2018-03-02T14:43:05.760Z,28.38
2018-03-02T14:45:34.055Z,26.35
2018-03-02T14:48:01.548Z,25.05
2018-03-02T14:50:29.790Z,24.95
2018-03-02T14:52:57.243Z,25.75
2018-03-02T14:55:24.735Z,25.10
2018-03-02T14:57:52.972Z,25.23
2018-03-02T15:00:20.465Z,26.75
2018-03-02T15:02:49.398Z,25.48
2018-03-02T15:05:16.858Z,25.08
2018-03-02T15:07:44.355Z,28.92
2018-03-02T15:10:11.834Z,27.08
2018-03-02T15:12:40.091Z,26.70
2018-03-02T15:15:07.577Z,27.30
2018-03-02T15:17:35.066Z,24.67
2018-03-02T15:20:05.431Z,23.85
2018-03-02T15:22:32.910Z,24.50
2018-03-02T15:25:01.160Z,23.90
2018-03-02T15:27:28.910Z,25.60
2018-03-02T15:29:56.392Z,25.70
2018-03-02T15:32:25.406Z,27.90
2018-03-02T15:34:53.827Z,26.27
2018-03-02T15:37:23.145Z,27.15
2018-03-02T15:39:50.640Z,24.25
2018-03-02T15:42:18.362Z,26.85
2018-03-02T15:44:45.830Z,25.10
2018-03-02T15:47:13.322Z,26.77
2018-03-02T15:49:40.795Z,27.55
2018-03-02T15:52:08.344Z,27.80
2018-03-02T15:54:36.150Z,24.73
2018-03-02T15:57:03.607Z,26.40
2018-03-02T15:59:31.071Z,22.73
2018-03-02T16:01:58.564Z,23.15
2018-03-02T16:04:26.146Z,28.00
2018-03-02T16:06:54.374Z,25.77
2018-03-02T16:09:22.635Z,27.55
2018-03-02T16:11:50.144Z,25.77
2018-03-02T16:14:17.634Z,24.83
2018-03-02T16:16:45.088Z,25.02
2018-03-02T16:19:12.560Z,27.62
2018-03-02T16:21:40.070Z,25.95
2018-03-02T16:24:07.540Z,23.35
2018-03-02T16:26:35.051Z,26.42
2018-03-02T16:29:03.284Z,23.38
2018-03-02T16:31:30.753Z,27.08
2018-03-02T16:33:58.276Z,24.00
2018-03-02T16:36:25.741Z,23.58
2018-03-02T16:38:53.212Z,25.80
2018-03-02T16:41:20.718Z,24.40
2018-03-02T16:43:48.944Z,24.77
2018-03-02T16:46:16.419Z,27.75
2018-03-02T16:48:43.936Z,25.65
2018-03-02T16:51:11.392Z,26.40
2018-03-02T16:53:38.856Z,24.73
2018-03-02T16:56:06.342Z,24.20
2018-03-02T16:58:33.864Z,26.23
2018-03-02T17:01:01.345Z,26.73
2018-03-02T17:03:28.803Z,26.12
2018-03-02T17:05:56.321Z,26.35
2018-03-02T17:08:23.783Z,24.67
2018-03-02T17:10:51.245Z,26.02
2018-03-02T17:13:18.750Z,25.02
2018-03-02T17:15:46.243Z,26.62
2018-03-02T17:18:13.715Z,26.87
2018-03-02T17:20:41.278Z,21.90
2018-03-02T17:23:08.772Z,25.85
2018-03-02T17:25:36.228Z,26.15
2018-03-02T17:28:03.735Z,26.45
2018-03-02T17:30:31.210Z,26.85
2018-03-02T17:32:58.677Z,24.17
2018-03-02T17:35:26.166Z,26.87
2018-03-02T17:37:53.632Z,22.52
2018-03-02T17:40:21.866Z,22.55
2018-03-02T17:42:49.339Z,23.10
2018-03-02T17:45:16.839Z,17.40
2018-03-02T17:47:44.273Z,18.60
2018-03-02T17:50:11.749Z,23.90
2018-03-02T17:52:39.980Z,21.90
2018-03-02T17:55:07.465Z,25.65
2018-03-02T17:57:34.932Z,26.23
2018-03-02T18:00:03.223Z,27.75
2018-03-02T18:02:30.670Z,25.30
2018-03-02T18:04:58.150Z,28.02
2018-03-02T18:07:25.747Z,26.45
2018-03-02T18:09:53.183Z,22.75
2018-03-02T18:12:20.651Z,28.15
2018-03-02T18:14:48.134Z,25.37
2018-03-02T18:17:16.386Z,23.65
2018-03-02T18:19:43.851Z,23.00
2018-03-02T18:22:11.365Z,22.15
2018-03-02T18:24:38.832Z,20.27
2018-03-02T18:27:06.302Z,23.95
2018-03-02T18:29:33.835Z,23.70
2018-03-02T18:32:01.323Z,23.55
2018-03-02T18:34:28.782Z,19.80
2018-03-02T18:36:56.280Z,22.48
2018-03-02T18:39:25.254Z,23.52
2018-03-02T18:41:52.715Z,22.87
2018-03-02T18:44:20.969Z,26.50
2018-03-02T18:46:48.454Z,24.17
2018-03-02T18:49:16.692Z,29.12
2018-03-02T18:51:44.191Z,25.00
2018-03-02T18:54:12.440Z,25.02
2018-03-02T18:56:39.915Z,29.05
2018-03-02T18:59:08.150Z,25.25
2018-03-02T19:01:35.623Z,26.45
2018-03-02T19:04:03.121Z,27.08
2018-03-02T19:06:31.364Z,32.22
2018-03-02T19:08:58.847Z,29.00
2018-03-02T19:11:27.124Z,28.52
2018-03-02T19:13:54.603Z,32.00
2018-03-02T19:16:22.079Z,27.95
2018-03-02T19:18:49.570Z,28.20
2018-03-02T19:21:17.038Z,30.67
2018-03-02T19:23:45.282Z,29.17
2018-03-02T19:26:12.791Z,28.50
2018-03-02T19:28:40.255Z,26.12
2018-03-02T19:31:07.738Z,24.05
2018-03-02T19:33:35.264Z,23.55
2018-03-02T19:36:04.187Z,22.50
2018-03-02T19:38:31.676Z,27.60
2018-03-02T19:40:59.194Z,25.75
2018-03-02T19:43:26.687Z,30.10
2018-03-02T19:45:54.164Z,27.58
2018-03-02T19:48:22.411Z,28.50
2018-03-02T19:50:49.891Z,22.90
2018-03-02T19:53:17.388Z,24.40
2018-03-02T19:55:44.867Z,25.12
2018-03-02T19:58:12.339Z,27.27
2018-03-02T20:00:39.839Z,25.10
2018-03-02T20:03:07.313Z,28.90
2018-03-02T20:05:34.786Z,21.95
2018-03-02T20:08:02.279Z,28.55
2018-03-02T20:10:29.856Z,27.67
2018-03-02T20:12:58.161Z,27.17
2018-03-02T20:15:25.656Z,37.25
2018-03-02T20:17:53.122Z,26.67
2018-03-02T20:20:20.607Z,33.13
2018-03-02T20:22:48.875Z,30.83
2018-03-02T20:25:17.103Z,34.75
2018-03-02T20:27:44.566Z,35.97
2018-03-02T20:30:12.055Z,27.35
2018-03-02T20:32:39.527Z,28.90
2018-03-02T20:35:07.796Z,30.92
2018-03-02T20:37:35.250Z,31.23
2018-03-02T20:40:03.484Z,31.80
2018-03-02T20:42:30.947Z,38.13
2018-03-02T20:44:59.197Z,30.37
2018-03-02T20:47:26.674Z,34.00
2018-03-02T20:49:54.306Z,33.90
2018-03-02T20:52:21.787Z,34.67
2018-03-02T20:54:49.254Z,35.03
2018-03-02T20:57:16.732Z,36.10
2018-03-02T20:59:44.334Z,43.28
2018-03-02T21:02:11.813Z,46.92
2018-03-02T21:04:39.289Z,40.97
2018-03-02T21:07:06.772Z,50.38
2018-03-02T21:09:35.024Z,37.30
2018-03-02T21:12:02.487Z,49.65
2018-03-02T21:14:30.095Z,48.05
2018-03-02T21:16:57.554Z,44.00
2018-03-02T21:19:25.785Z,40.17
2018-03-02T21:21:53.274Z,44.25
2018-03-02T21:24:20.740Z,43.22
2018-03-02T21:26:48.219Z,49.40
2018-03-02T21:29:15.707Z,51.67
2018-03-02T21:31:43.184Z,44.35
2018-03-02T21:34:11.431Z,49.05
2018-03-02T21:36:38.942Z,50.90
2018-03-02T21:39:06.403Z,55.78
2018-03-02T21:41:33.877Z,59.20
2018-03-02T21:44:01.412Z,49.70
2018-03-02T21:46:28.987Z,54.53
2018-03-02T21:48:56.532Z,52.92
2018-03-02T21:51:24.090Z,47.88
2018-03-02T21:53:51.560Z,58.35
2018-03-02T21:56:19.040Z,61.83
2018-03-02T21:58:46.528Z,60.12
2018-03-02T22:01:14.839Z,56.33
2018-03-02T22:03:42.303Z,53.70
2018-03-02T22:06:09.798Z,58.00
2018-03-02T22:08:38.030Z,48.60
2018-03-02T22:11:05.520Z,53.60
2018-03-02T22:13:33.024Z,59.50
2018-03-02T22:16:00.595Z,52.75
2018-03-02T22:18:28.091Z,45.63
2018-03-02T22:20:55.551Z,42.00
2018-03-02T22:23:23.023Z,62.53
2018-03-02T22:25:50.528Z,55.75
2018-03-02T22:28:18.051Z,53.50
2018-03-02T22:30:46.293Z,53.20
2018-03-02T22:33:13.783Z,56.28
2018-03-02T22:35:42.845Z,58.33
2018-03-02T22:38:10.321Z,46.78
2018-03-02T22:40:37.806Z,55.35
2018-03-02T22:43:05.280Z,61.35
2018-03-02T22:45:32.835Z,63.55
2018-03-02T22:48:00.351Z,52.65
2018-03-02T22:50:28.668Z,61.22
2018-03-02T22:52:56.176Z,60.83
2018-03-02T22:55:23.654Z,49.53
2018-03-02T22:57:51.890Z,56.78
2018-03-02T23:00:19.387Z,66.35
2018-03-02T23:02:47.632Z,63.22
2018-03-02T23:05:15.148Z,61.25
2018-03-02T23:07:42.651Z,55.38
2018-03-02T23:10:10.123Z,60.50
2018-03-02T23:12:38.354Z,66.12
2018-03-02T23:15:05.860Z,58.95
2018-03-02T23:17:33.411Z,59.67
2018-03-02T23:20:01.694Z,62.10
2018-03-02T23:22:29.940Z,62.72
2018-03-02T23:24:57.404Z,50.67
2018-03-02T23:27:25.782Z,59.95
2018-03-02T23:29:53.258Z,66.37
2018-03-02T23:32:21.483Z,55.65
2018-03-02T23:34:48.978Z,54.05
2018-03-02T23:37:16.442Z,57.88
2018-03-02T23:39:44.678Z,58.63
2018-03-02T23:42:12.167Z,48.78
2018-03-02T23:44:40.486Z,51.70
2018-03-02T23:47:07.995Z,45.67
2018-03-02T23:49:35.486Z,51.78
2018-03-02T23:52:03.061Z,63.83
2018-03-02T23:54:30.618Z,57.60
2018-03-02T23:56:58.141Z,65.80
2018-03-02T23:59:25.603Z,62.33
